Terminal Aerodrome Forecast
Issued by NWS

Home | Current Version | Previous Version | Text Only | Print | Product List | Glossary On
Versions: 1 2 3 4 5 6 7 8 9 10 11 12 13 14 15 16 17 18
000
FTUS43 KMQT 261246 AAA
TAFIWD
TAF AMD
KIWD 261246Z 2613/2712 18009KT 5SM -SN SCT025 OVC035
     FM261400 18009KT 1 1/2SM -SN OVC020
     FM261700 19007KT 6SM -SN OVC012
     FM262100 VRB03KT 3SM -SN OVC010
     FM270300 31003KT 5SM -SN BR OVC008
      AMD LTD TO CLD VIS AND WIND=

USA.gov is the U.S. government's official web portal to all federal, state and local government web resources and services.